sensor_id;sensor_type;location;lat;lon;timestamp;pressure;altitude;pressure_sealevel;temperature;humidity
84841;BME280;75088;53.114;18.040;2024-03-06T00:00:46;101717.62;;;4.80;82.92
84841;BME280;75088;53.114;18.040;2024-03-06T00:02:13;101719.02;;;4.80;82.96
84841;BME280;75088;53.114;18.040;2024-03-06T00:03:20;101715.30;;;4.79;83.07
84841;BME280;75088;53.114;18.040;2024-03-06T00:04:27;101719.54;;;4.80;83.07
84841;BME280;75088;53.114;18.040;2024-03-06T00:05:34;101719.73;;;4.81;82.94
84841;BME280;75088;53.114;18.040;2024-03-06T00:06:41;101720.24;;;4.80;82.98
84841;BME280;75088;53.114;18.040;2024-03-06T00:07:48;101719.55;;;4.80;83.02
84841;BME280;75088;53.114;18.040;2024-03-06T00:08:55;101721.67;;;4.80;83.09
84841;BME280;75088;53.114;18.040;2024-03-06T00:10:02;101721.47;;;4.80;83.04
84841;BME280;75088;53.114;18.040;2024-03-06T00:11:10;101720.76;;;4.80;82.94
84841;BME280;75088;53.114;18.040;2024-03-06T00:12:18;101722.50;;;4.79;83.08
84841;BME280;75088;53.114;18.040;2024-03-06T00:13:25;101723.02;;;4.78;82.82
84841;BME280;75088;53.114;18.040;2024-03-06T00:14:32;101725.85;;;4.79;83.11
84841;BME280;75088;53.114;18.040;2024-03-06T00:15:41;101724.98;;;4.79;83.00
84841;BME280;75088;53.114;18.040;2024-03-06T00:16:48;101724.27;;;4.79;83.02
84841;BME280;75088;53.114;18.040;2024-03-06T00:17:56;101723.73;;;4.79;83.12
84841;BME280;75088;53.114;18.040;2024-03-06T00:19:06;101722.52;;;4.79;83.03
84841;BME280;75088;53.114;18.040;2024-03-06T00:20:13;101720.75;;;4.79;82.99
84841;BME280;75088;53.114;18.040;2024-03-06T00:21:21;101727.48;;;4.81;83.06
84841;BME280;75088;53.114;18.040;2024-03-06T00:22:28;101729.61;;;4.81;83.13
84841;BME280;75088;53.114;18.040;2024-03-06T00:23:35;101731.92;;;4.82;82.91
84841;BME280;75088;53.114;18.040;2024-03-06T00:24:43;101731.20;;;4.81;83.04
84841;BME280;75088;53.114;18.040;2024-03-06T00:25:50;101729.63;;;4.82;83.11
84841;BME280;75088;53.114;18.040;2024-03-06T00:26:57;101731.74;;;4.82;83.01
84841;BME280;75088;53.114;18.040;2024-03-06T00:28:07;101729.27;;;4.82;82.91
84841;BME280;75088;53.114;18.040;2024-03-06T00:29:14;101735.10;;;4.82;83.21
84841;BME280;75088;53.114;18.040;2024-03-06T00:30:21;101736.17;;;4.82;83.07
84841;BME280;75088;53.114;18.040;2024-03-06T00:31:28;101734.95;;;4.83;82.96
84841;BME280;75088;53.114;18.040;2024-03-06T00:32:35;101731.61;;;4.83;83.22
84841;BME280;75088;53.114;18.040;2024-03-06T00:33:42;101733.23;;;4.84;83.08
84841;BME280;75088;53.114;18.040;2024-03-06T00:34:49;101736.08;;;4.85;83.11
84841;BME280;75088;53.114;18.040;2024-03-06T00:35:56;101733.57;;;4.84;83.18
84841;BME280;75088;53.114;18.040;2024-03-06T00:37:04;101734.85;;;4.86;83.05
84841;BME280;75088;53.114;18.040;2024-03-06T00:38:11;101739.80;;;4.86;83.20
84841;BME280;75088;53.114;18.040;2024-03-06T00:39:19;101743.00;;;4.87;83.05
84841;BME280;75088;53.114;18.040;2024-03-06T00:40:26;101742.30;;;4.87;83.09
84841;BME280;75088;53.114;18.040;2024-03-06T00:41:33;101745.14;;;4.88;83.16
84841;BME280;75088;53.114;18.040;2024-03-06T00:42:40;101746.20;;;4.88;83.12
84841;BME280;75088;53.114;18.040;2024-03-06T00:43:47;101747.09;;;4.88;83.09
84841;BME280;75088;53.114;18.040;2024-03-06T00:44:54;101743.05;;;4.89;82.99
84841;BME280;75088;53.114;18.040;2024-03-06T00:46:02;101743.59;;;4.89;83.05
84841;BME280;75088;53.114;18.040;2024-03-06T00:47:09;101745.18;;;4.89;82.99
84841;BME280;75088;53.114;18.040;2024-03-06T00:48:17;101745.01;;;4.90;82.93
84841;BME280;75088;53.114;18.040;2024-03-06T00:49:25;101745.70;;;4.89;82.92
84841;BME280;75088;53.114;18.040;2024-03-06T00:50:32;101747.98;;;4.89;83.01
84841;BME280;75088;53.114;18.040;2024-03-06T00:51:42;101746.02;;;4.88;82.92
84841;BME280;75088;53.114;18.040;2024-03-06T00:52:50;101743.36;;;4.88;82.99
84841;BME280;75088;53.114;18.040;2024-03-06T00:53:57;101742.83;;;4.87;83.02
84841;BME280;75088;53.114;18.040;2024-03-06T00:55:05;101742.11;;;4.87;82.94
84841;BME280;75088;53.114;18.040;2024-03-06T00:56:13;101738.59;;;4.87;83.06
84841;BME280;75088;53.114;18.040;2024-03-06T00:57:19;101740.55;;;4.87;82.99
84841;BME280;75088;53.114;18.040;2024-03-06T00:58:27;101740.88;;;4.87;82.93
84841;BME280;75088;53.114;18.040;2024-03-06T00:59:34;101744.23;;;4.87;83.04
84841;BME280;75088;53.114;18.040;2024-03-06T01:00:40;101742.50;;;4.88;83.06
84841;BME280;75088;53.114;18.040;2024-03-06T01:01:48;101742.68;;;4.88;83.09
84841;BME280;75088;53.114;18.040;2024-03-06T01:02:56;101746.22;;;4.89;83.01
84841;BME280;75088;53.114;18.040;2024-03-06T01:04:03;101750.27;;;4.89;83.06
84841;BME280;75088;53.114;18.040;2024-03-06T01:05:10;101753.13;;;4.90;82.92
84841;BME280;75088;53.114;18.040;2024-03-06T01:06:17;101751.53;;;4.90;83.09
84841;BME280;75088;53.114;18.040;2024-03-06T01:07:24;101756.46;;;4.90;83.04
84841;BME280;75088;53.114;18.040;2024-03-06T01:08:31;101757.70;;;4.90;82.86
84841;BME280;75088;53.114;18.040;2024-03-06T01:09:38;101757.72;;;4.90;82.95
84841;BME280;75088;53.114;18.040;2024-03-06T01:10:46;101759.51;;;4.91;83.02
84841;BME280;75088;53.114;18.040;2024-03-06T01:11:53;101762.15;;;4.92;82.98
84841;BME280;75088;53.114;18.040;2024-03-06T01:13:00;101765.14;;;4.92;83.01
84841;BME280;75088;53.114;18.040;2024-03-06T01:14:07;101764.08;;;4.91;83.08
84841;BME280;75088;53.114;18.040;2024-03-06T01:15:14;101768.33;;;4.92;83.16
84841;BME280;75088;53.114;18.040;2024-03-06T01:16:21;101772.55;;;4.92;83.04
84841;BME280;75088;53.114;18.040;2024-03-06T01:17:28;101772.73;;;4.92;82.93
84841;BME280;75088;53.114;18.040;2024-03-06T01:18:35;101772.38;;;4.93;83.02
84841;BME280;75088;53.114;18.040;2024-03-06T01:19:44;101770.80;;;4.92;83.10
84841;BME280;75088;53.114;18.040;2024-03-06T01:20:51;101774.31;;;4.92;83.09
84841;BME280;75088;53.114;18.040;2024-03-06T01:21:58;101775.73;;;4.93;82.99
84841;BME280;75088;53.114;18.040;2024-03-06T01:23:05;101775.73;;;4.94;83.07
84841;BME280;75088;53.114;18.040;2024-03-06T01:24:12;101776.46;;;4.94;83.05
84841;BME280;75088;53.114;18.040;2024-03-06T01:25:19;101778.58;;;4.94;83.13
84841;BME280;75088;53.114;18.040;2024-03-06T01:26:26;101778.93;;;4.94;83.03
84841;BME280;75088;53.114;18.040;2024-03-06T01:27:34;101780.34;;;4.94;83.01
84841;BME280;75088;53.114;18.040;2024-03-06T01:28:43;101778.94;;;4.94;82.98
84841;BME280;75088;53.114;18.040;2024-03-06T01:29:50;101777.15;;;4.94;82.96
84841;BME280;75088;53.114;18.040;2024-03-06T01:30:57;101781.94;;;4.94;83.00
84841;BME280;75088;53.114;18.040;2024-03-06T01:32:05;101779.84;;;4.95;83.16
84841;BME280;75088;53.114;18.040;2024-03-06T01:33:15;101779.48;;;4.95;83.00
84841;BME280;75088;53.114;18.040;2024-03-06T01:34:22;101778.59;;;4.95;83.04
84841;BME280;75088;53.114;18.040;2024-03-06T01:35:30;101779.30;;;4.95;83.09
84841;BME280;75088;53.114;18.040;2024-03-06T01:36:37;101774.20;;;4.95;83.18
84841;BME280;75088;53.114;18.040;2024-03-06T01:37:44;101775.10;;;4.95;83.09
84841;BME280;75088;53.114;18.040;2024-03-06T01:38:51;101775.12;;;4.96;83.06
84841;BME280;75088;53.114;18.040;2024-03-06T01:39:58;101778.48;;;4.97;83.01
84841;BME280;75088;53.114;18.040;2024-03-06T01:41:05;101775.32;;;4.97;83.15
84841;BME280;75088;53.114;18.040;2024-03-06T01:42:16;101778.85;;;4.97;82.98
84841;BME280;75088;53.114;18.040;2024-03-06T01:43:23;101779.72;;;4.97;83.04
84841;BME280;75088;53.114;18.040;2024-03-06T01:44:31;101776.54;;;4.96;82.95
84841;BME280;75088;53.114;18.040;2024-03-06T01:45:39;101775.64;;;4.96;82.95
84841;BME280;75088;53.114;18.040;2024-03-06T01:46:46;101784.06;;;4.95;83.01
84841;BME280;75088;53.114;18.040;2024-03-06T01:47:53;101780.90;;;4.95;82.93
84841;BME280;75088;53.114;18.040;2024-03-06T01:49:01;101780.21;;;4.96;83.07
84841;BME280;75088;53.114;18.040;2024-03-06T01:50:10;101783.38;;;4.96;83.08
84841;BME280;75088;53.114;18.040;2024-03-06T01:51:17;101784.05;;;4.95;83.12
84841;BME280;75088;53.114;18.040;2024-03-06T01:52:25;101786.33;;;4.94;83.00
84841;BME280;75088;53.114;18.040;2024-03-06T01:53:33;101786.14;;;4.94;83.11
84841;BME280;75088;53.114;18.040;2024-03-06T01:54:41;101787.02;;;4.94;83.14
84841;BME280;75088;53.114;18.040;2024-03-06T01:55:50;101786.13;;;4.94;83.11
84841;BME280;75088;53.114;18.040;2024-03-06T01:56:57;101788.27;;;4.94;83.01
84841;BME280;75088;53.114;18.040;2024-03-06T01:58:09;101784.73;;;4.94;83.05
84841;BME280;75088;53.114;18.040;2024-03-06T01:59:31;101788.59;;;4.94;82.92
84841;BME280;75088;53.114;18.040;2024-03-06T02:00:41;101786.30;;;4.93;83.07
84841;BME280;75088;53.114;18.040;2024-03-06T02:01:48;101787.71;;;4.93;83.05
84841;BME280;75088;53.114;18.040;2024-03-06T02:02:57;101790.54;;;4.93;83.04
84841;BME280;75088;53.114;18.040;2024-03-06T02:06:43;101790.33;;;4.92;83.06
84841;BME280;75088;53.114;18.040;2024-03-06T02:07:55;101789.80;;;4.92;83.19
84841;BME280;75088;53.114;18.040;2024-03-06T02:09:03;101791.21;;;4.93;83.27
84841;BME280;75088;53.114;18.040;2024-03-06T02:10:13;101790.37;;;4.94;83.04
84841;BME280;75088;53.114;18.040;2024-03-06T02:11:20;101787.04;;;4.94;83.19
84841;BME280;75088;53.114;18.040;2024-03-06T02:12:27;101785.27;;;4.94;83.22
84841;BME280;75088;53.114;18.040;2024-03-06T02:13:34;101786.83;;;4.93;83.09
84841;BME280;75088;53.114;18.040;2024-03-06T02:14:43;101788.23;;;4.92;82.97
84841;BME280;75088;53.114;18.040;2024-03-06T02:15:50;101791.23;;;4.93;83.03
84841;BME280;75088;53.114;18.040;2024-03-06T02:16:57;101792.64;;;4.93;83.22
84841;BME280;75088;53.114;18.040;2024-03-06T02:18:10;101792.84;;;4.94;83.16
84841;BME280;75088;53.114;18.040;2024-03-06T02:19:17;101791.08;;;4.94;83.09
84841;BME280;75088;53.114;18.040;2024-03-06T02:20:25;101789.13;;;4.94;83.13
84841;BME280;75088;53.114;18.040;2024-03-06T02:21:32;101790.54;;;4.94;83.11
84841;BME280;75088;53.114;18.040;2024-03-06T02:22:41;101797.98;;;4.95;83.13
84841;BME280;75088;53.114;18.040;2024-03-06T02:23:48;101795.88;;;4.96;83.19
84841;BME280;75088;53.114;18.040;2024-03-06T02:24:56;101796.63;;;4.97;83.34
84841;BME280;75088;53.114;18.040;2024-03-06T02:26:03;101798.58;;;4.98;83.24
84841;BME280;75088;53.114;18.040;2024-03-06T02:27:16;101797.89;;;4.98;83.11
84841;BME280;75088;53.114;18.040;2024-03-06T02:28:23;101796.46;;;4.98;83.06
84841;BME280;75088;53.114;18.040;2024-03-06T02:29:30;101795.25;;;4.98;83.28
84841;BME280;75088;53.114;18.040;2024-03-06T02:30:39;101795.98;;;4.99;83.09
84841;BME280;75088;53.114;18.040;2024-03-06T02:31:46;101794.21;;;4.99;83.16
84841;BME280;75088;53.114;18.040;2024-03-06T02:32:53;101794.23;;;4.99;83.15
84841;BME280;75088;53.114;18.040;2024-03-06T02:34:00;101792.11;;;4.99;83.01
84841;BME280;75088;53.114;18.040;2024-03-06T02:35:10;101792.08;;;4.98;83.25
84841;BME280;75088;53.114;18.040;2024-03-06T02:36:19;101789.43;;;4.98;82.99
84841;BME280;75088;53.114;18.040;2024-03-06T02:37:27;101787.14;;;4.98;83.17
84841;BME280;75088;53.114;18.040;2024-03-06T02:38:34;101787.86;;;4.99;83.15
84841;BME280;75088;53.114;18.040;2024-03-06T02:39:45;101782.23;;;4.98;83.22
84841;BME280;75088;53.114;18.040;2024-03-06T02:40:52;101780.33;;;5.00;83.20
84841;BME280;75088;53.114;18.040;2024-03-06T02:41:59;101783.19;;;5.01;83.20
84841;BME280;75088;53.114;18.040;2024-03-06T02:43:06;101784.45;;;5.02;83.15
84841;BME280;75088;53.114;18.040;2024-03-06T02:44:16;101784.81;;;5.02;83.19
84841;BME280;75088;53.114;18.040;2024-03-06T02:45:24;101790.80;;;5.02;83.27
84841;BME280;75088;53.114;18.040;2024-03-06T02:46:31;101790.11;;;5.03;83.07
84841;BME280;75088;53.114;18.040;2024-03-06T02:47:40;101784.47;;;5.02;82.97
84841;BME280;75088;53.114;18.040;2024-03-06T02:48:47;101782.34;;;5.02;83.05
84841;BME280;75088;53.114;18.040;2024-03-06T02:49:54;101784.45;;;5.02;82.95
84841;BME280;75088;53.114;18.040;2024-03-06T02:51:02;101784.91;;;5.00;83.09
84841;BME280;75088;53.114;18.040;2024-03-06T02:52:09;101783.29;;;4.99;83.04
84841;BME280;75088;53.114;18.040;2024-03-06T02:53:16;101787.33;;;4.98;83.26
84841;BME280;75088;53.114;18.040;2024-03-06T02:54:23;101792.24;;;4.98;83.17
84841;BME280;75088;53.114;18.040;2024-03-06T02:55:31;101791.55;;;4.98;83.06
84841;BME280;75088;53.114;18.040;2024-03-06T02:56:38;101790.30;;;4.98;83.14
84841;BME280;75088;53.114;18.040;2024-03-06T02:57:44;101791.50;;;4.96;83.12
84841;BME280;75088;53.114;18.040;2024-03-06T02:58:51;101792.19;;;4.96;83.16
84841;BME280;75088;53.114;18.040;2024-03-06T02:59:59;101792.30;;;4.94;83.17
84841;BME280;75088;53.114;18.040;2024-03-06T03:01:06;101794.23;;;4.93;83.13
84841;BME280;75088;53.114;18.040;2024-03-06T03:02:14;101795.63;;;4.93;83.09
84841;BME280;75088;53.114;18.040;2024-03-06T03:03:21;101795.98;;;4.94;83.20
84841;BME280;75088;53.114;18.040;2024-03-06T03:04:30;101791.92;;;4.93;83.27
84841;BME280;75088;53.114;18.040;2024-03-06T03:05:39;101793.87;;;4.93;83.25
84841;BME280;75088;53.114;18.040;2024-03-06T03:06:46;101797.38;;;4.92;83.17
84841;BME280;75088;53.114;18.040;2024-03-06T03:07:53;101797.73;;;4.92;83.10
84841;BME280;75088;53.114;18.040;2024-03-06T03:09:00;101799.68;;;4.92;83.30
84841;BME280;75088;53.114;18.040;2024-03-06T03:10:13;101804.97;;;4.94;83.37
84841;BME280;75088;53.114;18.040;2024-03-06T03:11:20;101805.17;;;4.94;83.43
84841;BME280;75088;53.114;18.040;2024-03-06T03:12:27;101807.10;;;4.94;83.34
84841;BME280;75088;53.114;18.040;2024-03-06T03:13:34;101804.83;;;4.94;83.23
84841;BME280;75088;53.114;18.040;2024-03-06T03:14:42;101805.34;;;4.94;83.20
84841;BME280;75088;53.114;18.040;2024-03-06T03:15:49;101801.80;;;4.93;83.20
84841;BME280;75088;53.114;18.040;2024-03-06T03:16:57;101805.13;;;4.93;83.24
84841;BME280;75088;53.114;18.040;2024-03-06T03:18:04;101803.20;;;4.92;83.25
84841;BME280;75088;53.114;18.040;2024-03-06T03:19:11;101800.92;;;4.94;83.46
84841;BME280;75088;53.114;18.040;2024-03-06T03:20:18;101806.75;;;4.94;83.51
84841;BME280;75088;53.114;18.040;2024-03-06T03:21:26;101806.23;;;4.94;83.25
84841;BME280;75088;53.114;18.040;2024-03-06T03:22:34;101804.48;;;4.95;83.25
84841;BME280;75088;53.114;18.040;2024-03-06T03:23:41;101804.48;;;4.95;83.34
84841;BME280;75088;53.114;18.040;2024-03-06T03:24:48;101805.94;;;4.96;83.29
84841;BME280;75088;53.114;18.040;2024-03-06T03:25:55;101803.48;;;4.96;83.31
84841;BME280;75088;53.114;18.040;2024-03-06T03:27:02;101810.36;;;4.97;83.31
84841;BME280;75088;53.114;18.040;2024-03-06T03:28:09;101807.03;;;4.98;83.42
84841;BME280;75088;53.114;18.040;2024-03-06T03:29:19;101807.90;;;4.97;83.18
84841;BME280;75088;53.114;18.040;2024-03-06T03:30:26;101806.34;;;4.98;83.40
84841;BME280;75088;53.114;18.040;2024-03-06T03:31:33;101808.83;;;4.99;83.34
84841;BME280;75088;53.114;18.040;2024-03-06T03:32:41;101808.15;;;5.00;83.45
84841;BME280;75088;53.114;18.040;2024-03-06T03:33:49;101811.50;;;5.00;83.30
84841;BME280;75088;53.114;18.040;2024-03-06T03:34:56;101811.49;;;4.99;83.22
84841;BME280;75088;53.114;18.040;2024-03-06T03:36:04;101810.41;;;4.99;83.30
84841;BME280;75088;53.114;18.040;2024-03-06T03:37:14;101809.73;;;4.99;83.25
84841;BME280;75088;53.114;18.040;2024-03-06T03:38:21;101813.28;;;5.00;83.44
84841;BME280;75088;53.114;18.040;2024-03-06T03:39:28;101810.83;;;5.01;83.44
84841;BME280;75088;53.114;18.040;2024-03-06T03:40:35;101815.27;;;5.02;83.23
84841;BME280;75088;53.114;18.040;2024-03-06T03:41:45;101812.45;;;5.02;83.33
84841;BME280;75088;53.114;18.040;2024-03-06T03:42:52;101815.08;;;5.02;83.26
84841;BME280;75088;53.114;18.040;2024-03-06T03:44:00;101814.21;;;5.02;83.33
84841;BME280;75088;53.114;18.040;2024-03-06T03:45:07;101816.86;;;5.02;83.27
84841;BME280;75088;53.114;18.040;2024-03-06T03:46:14;101818.82;;;5.03;83.32
84841;BME280;75088;53.114;18.040;2024-03-06T03:47:21;101815.85;;;5.04;83.39
84841;BME280;75088;53.114;18.040;2024-03-06T03:48:28;101819.92;;;5.05;83.51
84841;BME280;75088;53.114;18.040;2024-03-06T03:49:36;101822.95;;;5.06;83.60
84841;BME280;75088;53.114;18.040;2024-03-06T03:50:43;101822.08;;;5.06;83.57
84841;BME280;75088;53.114;18.040;2024-03-06T03:51:50;101823.35;;;5.07;83.56
84841;BME280;75088;53.114;18.040;2024-03-06T03:52:57;101821.25;;;5.07;83.39
84841;BME280;75088;53.114;18.040;2024-03-06T03:54:06;101818.80;;;5.08;83.45
84841;BME280;75088;53.114;18.040;2024-03-06T03:55:14;101816.17;;;5.08;83.45
84841;BME280;75088;53.114;18.040;2024-03-06T03:56:21;101816.89;;;5.09;83.48
84841;BME280;75088;53.114;18.040;2024-03-06T03:57:28;101816.39;;;5.09;83.46
84841;BME280;75088;53.114;18.040;2024-03-06T03:58:36;101813.91;;;5.09;83.40
84841;BME280;75088;53.114;18.040;2024-03-06T03:59:44;101812.13;;;5.08;83.37
84841;BME280;75088;53.114;18.040;2024-03-06T04:00:51;101816.48;;;5.07;83.33
84841;BME280;75088;53.114;18.040;2024-03-06T04:02:00;101817.65;;;5.05;83.48
84841;BME280;75088;53.114;18.040;2024-03-06T04:03:07;101822.06;;;5.05;83.55
84841;BME280;75088;53.114;18.040;2024-03-06T04:04:14;101822.42;;;5.05;83.38
84841;BME280;75088;53.114;18.040;2024-03-06T04:05:22;101824.22;;;5.07;83.42
84841;BME280;75088;53.114;18.040;2024-03-06T04:06:29;101820.86;;;5.06;83.43
84841;BME280;75088;53.114;18.040;2024-03-06T04:07:36;101818.73;;;5.06;83.41
84841;BME280;75088;53.114;18.040;2024-03-06T04:08:44;101818.74;;;5.06;83.63
84841;BME280;75088;53.114;18.040;2024-03-06T04:09:51;101817.69;;;5.06;83.47
84841;BME280;75088;53.114;18.040;2024-03-06T04:10:58;101821.39;;;5.06;83.44
84841;BME280;75088;53.114;18.040;2024-03-06T04:12:07;101819.45;;;5.06;83.55
84841;BME280;75088;53.114;18.040;2024-03-06T04:13:16;101820.00;;;5.07;83.60
84841;BME280;75088;53.114;18.040;2024-03-06T04:14:25;101820.88;;;5.07;83.76
84841;BME280;75088;53.114;18.040;2024-03-06T04:15:32;101826.70;;;5.07;83.47
84841;BME280;75088;53.114;18.040;2024-03-06T04:16:39;101825.11;;;5.07;83.53
84841;BME280;75088;53.114;18.040;2024-03-06T04:17:46;101827.09;;;5.08;83.49
84841;BME280;75088;53.114;18.040;2024-03-06T04:18:53;101827.09;;;5.08;83.67
84841;BME280;75088;53.114;18.040;2024-03-06T04:20:00;101829.40;;;5.09;83.57
84841;BME280;75088;53.114;18.040;2024-03-06T04:21:09;101828.17;;;5.09;83.59
84841;BME280;75088;53.114;18.040;2024-03-06T04:22:21;101826.59;;;5.09;83.71
84841;BME280;75088;53.114;18.040;2024-03-06T04:23:28;101824.45;;;5.09;83.65
84841;BME280;75088;53.114;18.040;2024-03-06T04:24:35;101826.77;;;5.09;83.77
84841;BME280;75088;53.114;18.040;2024-03-06T04:25:42;101826.93;;;5.09;83.71
84841;BME280;75088;53.114;18.040;2024-03-06T04:26:50;101824.64;;;5.09;83.50
84841;BME280;75088;53.114;18.040;2024-03-06T04:27:57;101824.46;;;5.09;83.59
84841;BME280;75088;53.114;18.040;2024-03-06T04:29:05;101821.99;;;5.09;83.72
84841;BME280;75088;53.114;18.040;2024-03-06T04:30:15;101823.61;;;5.10;83.78
84841;BME280;75088;53.114;18.040;2024-03-06T04:31:22;101821.67;;;5.10;83.71
84841;BME280;75088;53.114;18.040;2024-03-06T04:32:29;101816.73;;;5.09;83.68
84841;BME280;75088;53.114;18.040;2024-03-06T04:33:37;101818.29;;;5.08;83.44
84841;BME280;75088;53.114;18.040;2024-03-06T04:34:46;101819.69;;;5.08;83.83
84841;BME280;75088;53.114;18.040;2024-03-06T04:35:53;101818.60;;;5.07;83.68
84841;BME280;75088;53.114;18.040;2024-03-06T04:37:00;101819.83;;;5.07;83.86
84841;BME280;75088;53.114;18.040;2024-03-06T04:38:07;101820.19;;;5.07;84.03
84841;BME280;75088;53.114;18.040;2024-03-06T04:39:14;101821.27;;;5.08;83.84
84841;BME280;75088;53.114;18.040;2024-03-06T04:40:21;101824.79;;;5.07;83.96
84841;BME280;75088;53.114;18.040;2024-03-06T04:41:30;101822.84;;;5.07;83.95
84841;BME280;75088;53.114;18.040;2024-03-06T04:42:37;101823.02;;;5.08;83.74
84841;BME280;75088;53.114;18.040;2024-03-06T04:43:45;101821.25;;;5.07;83.91
84841;BME280;75088;53.114;18.040;2024-03-06T04:44:52;101817.16;;;5.06;83.81
84841;BME280;75088;53.114;18.040;2024-03-06T04:45:59;101819.54;;;5.04;83.86
84841;BME280;75088;53.114;18.040;2024-03-06T04:47:06;101822.48;;;5.02;83.80
84841;BME280;75088;53.114;18.040;2024-03-06T04:48:13;101819.48;;;5.01;83.94
84841;BME280;75088;53.114;18.040;2024-03-06T04:49:20;101824.59;;;5.02;84.01
84841;BME280;75088;53.114;18.040;2024-03-06T04:50:28;101825.13;;;5.01;84.01
84841;BME280;75088;53.114;18.040;2024-03-06T04:51:35;101823.70;;;5.02;83.91
84841;BME280;75088;53.114;18.040;2024-03-06T04:52:43;101822.44;;;5.00;84.01
84841;BME280;75088;53.114;18.040;2024-03-06T04:53:51;101819.97;;;5.00;84.08
84841;BME280;75088;53.114;18.040;2024-03-06T04:54:58;101818.38;;;5.00;83.81
84841;BME280;75088;53.114;18.040;2024-03-06T04:56:05;101821.52;;;4.99;84.03
84841;BME280;75088;53.114;18.040;2024-03-06T04:57:13;101820.45;;;4.99;84.02
84841;BME280;75088;53.114;18.040;2024-03-06T04:58:20;101823.45;;;4.99;84.12
84841;BME280;75088;53.114;18.040;2024-03-06T04:59:27;101822.41;;;4.99;83.94
84841;BME280;75088;53.114;18.040;2024-03-06T05:00:34;101822.52;;;4.97;84.06
84841;BME280;75088;53.114;18.040;2024-03-06T05:01:42;101822.65;;;4.96;84.06
84841;BME280;75088;53.114;18.040;2024-03-06T05:02:50;101822.81;;;4.95;84.02
84841;BME280;75088;53.114;18.040;2024-03-06T05:03:57;101822.65;;;4.96;84.17
84841;BME280;75088;53.114;18.040;2024-03-06T05:05:04;101825.66;;;4.97;84.04
84841;BME280;75088;53.114;18.040;2024-03-06T05:06:14;101824.66;;;4.98;84.13
84841;BME280;75088;53.114;18.040;2024-03-06T05:07:21;101827.67;;;4.98;84.10
84841;BME280;75088;53.114;18.040;2024-03-06T05:08:28;101826.95;;;4.98;84.10
84841;BME280;75088;53.114;18.040;2024-03-06T05:09:36;101830.34;;;4.99;84.33
84841;BME280;75088;53.114;18.040;2024-03-06T05:10:43;101834.41;;;5.00;84.16
84841;BME280;75088;53.114;18.040;2024-03-06T05:11:50;101835.52;;;5.01;84.20
84841;BME280;75088;53.114;18.040;2024-03-06T05:12:57;101833.77;;;5.02;84.13
84841;BME280;75088;53.114;18.040;2024-03-06T05:14:04;101835.38;;;5.03;84.34
84841;BME280;75088;53.114;18.040;2024-03-06T05:15:13;101834.53;;;5.04;84.23
84841;BME280;75088;53.114;18.040;2024-03-06T05:16:20;101838.27;;;5.05;84.27
84841;BME280;75088;53.114;18.040;2024-03-06T05:17:28;101834.06;;;5.06;84.37
84841;BME280;75088;53.114;18.040;2024-03-06T05:18:36;101833.73;;;5.06;84.27
84841;BME280;75088;53.114;18.040;2024-03-06T05:19:45;101834.96;;;5.06;84.02
84841;BME280;75088;53.114;18.040;2024-03-06T05:20:53;101839.55;;;5.07;84.18
84841;BME280;75088;53.114;18.040;2024-03-06T05:22:00;101842.92;;;5.08;84.21
84841;BME280;75088;53.114;18.040;2024-03-06T05:23:07;101841.54;;;5.08;84.35
84841;BME280;75088;53.114;18.040;2024-03-06T05:24:14;101844.36;;;5.09;84.34
84841;BME280;75088;53.114;18.040;2024-03-06T05:25:21;101847.21;;;5.09;84.24
84841;BME280;75088;53.114;18.040;2024-03-06T05:26:27;101845.29;;;5.10;84.07
84841;BME280;75088;53.114;18.040;2024-03-06T05:27:35;101844.41;;;5.10;84.10
84841;BME280;75088;53.114;18.040;2024-03-06T05:28:42;101848.16;;;5.12;84.36
84841;BME280;75088;53.114;18.040;2024-03-06T05:29:50;101845.88;;;5.13;84.19
84841;BME280;75088;53.114;18.040;2024-03-06T05:30:57;101850.64;;;5.13;84.34
84841;BME280;75088;53.114;18.040;2024-03-06T05:32:06;101855.23;;;5.13;84.12
84841;BME280;75088;53.114;18.040;2024-03-06T05:33:15;101856.64;;;5.13;84.22
84841;BME280;75088;53.114;18.040;2024-03-06T05:34:22;101855.95;;;5.14;84.12
84841;BME280;75088;53.114;18.040;2024-03-06T05:35:29;101862.99;;;5.14;84.18
84841;BME280;75088;53.114;18.040;2024-03-06T05:36:37;101859.83;;;5.13;84.16
84841;BME280;75088;53.114;18.040;2024-03-06T05:37:46;101863.52;;;5.14;84.15
84841;BME280;75088;53.114;18.040;2024-03-06T05:38:53;101862.27;;;5.13;84.29
84841;BME280;75088;53.114;18.040;2024-03-06T05:40:00;101864.75;;;5.13;84.23
84841;BME280;75088;53.114;18.040;2024-03-06T05:41:10;101867.06;;;5.14;84.29
84841;BME280;75088;53.114;18.040;2024-03-06T05:42:19;101867.97;;;5.15;84.36
84841;BME280;75088;53.114;18.040;2024-03-06T05:43:26;101868.86;;;5.15;84.22
84841;BME280;75088;53.114;18.040;2024-03-06T05:44:35;101867.81;;;5.16;84.23
84841;BME280;75088;53.114;18.040;2024-03-06T05:45:44;101871.02;;;5.16;84.36
84841;BME280;75088;53.114;18.040;2024-03-06T05:46:51;101872.77;;;5.16;84.18
84841;BME280;75088;53.114;18.040;2024-03-06T05:47:58;101873.14;;;5.17;84.26
84841;BME280;75088;53.114;18.040;2024-03-06T05:49:05;101873.51;;;5.17;84.37
84841;BME280;75088;53.114;18.040;2024-03-06T05:50:13;101872.27;;;5.17;84.35
84841;BME280;75088;53.114;18.040;2024-03-06T05:51:21;101877.02;;;5.17;84.26
84841;BME280;75088;53.114;18.040;2024-03-06T05:52:28;101872.93;;;5.16;84.21
84841;BME280;75088;53.114;18.040;2024-03-06T05:53:38;101880.89;;;5.17;84.32
84841;BME280;75088;53.114;18.040;2024-03-06T05:54:48;101882.85;;;5.18;84.37
84841;BME280;75088;53.114;18.040;2024-03-06T05:55:56;101885.48;;;5.17;84.36
84841;BME280;75088;53.114;18.040;2024-03-06T05:57:03;101884.61;;;5.17;84.19